KCLE/CLE METAR and TAF weather

Enter ICAO airport designator
Station Type Date Time Source
KCLE METAR 2020/12/06 00:51 UTC NOAA

KCLE 060051Z 35012KT 10SM OVC027 01/M04 A3007 RMK AO2 SLP206 T00111039


Station Type Date Time Source
KCLE Decoded METAR 2020/12/06 00:51 UTC NOAA

CLEVELAND-HOPKINS INTERNATIONAL , OH, United States (KCLE) 41-24N 081-51W 236M
Dec 05, 2020 - 07:51 PM EST / 2020.12.06 0051 UTC
Wind: from the N (350 degrees) at 14 MPH (12 KT):0
Visibility: 10 mile(s):0
Sky conditions: overcast
Temperature: 34.0 F (1.1 C)
Windchill: 24 F (-4 C):1
Dew Point: 25.0 F (-3.9 C)
Relative Humidity: 69%
Pressure (altimeter): 30.07 in. Hg (1018 hPa)
ob: KCLE 060051Z 35012KT 10SM OVC027 01/M04 A3007 RMK AO2 SLP206 T00111039
cycle: 1

Station Type Date Time Source
KCLE TAF 2020/12/05 21:12 UTC NOAA

TAF
AMD KCLE 052109Z 0521/0624 34008KT 6SM -SHSN OVC022
TEMPO 0606/0610 2SM -SHSN OVC015
FM061200 33005KT P6SM OVC020

Example: see airport list